Time;durP1;ratioP1;P1;durP2;ratioP2;P2;SDS_P1;SDS_P2;PMS_P1;PMS_P2;Temp;Humidity;BMP_temperature;BMP_pressure;BME280_temperature;BME280_humidity;BME280_pressure;Samples;Min_cycle;Max_cycle;Signal;HPM_P1;HPM_P2
2022/01/22 00:02:20;;;;;;;14.38;3.42;;;;;;;;;;4985830;28;20084;-68
2022/01/22 00:04:48;;;;;;;14.43;3.88;;;;;;;;;;4980852;28;20034;-69
2022/01/22 00:07:15;;;;;;;14.85;3.55;;;;;;;;;;4981692;28;20030;-70
2022/01/22 00:09:50;;;;;;;14.60;3.72;;;;;;;;;;4983229;28;20028;-70
2022/01/22 00:12:44;;;;;;;14.63;4.20;;;;;;;;;;4981844;28;20485;-69
2022/01/22 00:15:17;;;;;;;11.48;3.33;;;;;;;;;;4984362;28;20084;-69
2022/01/22 00:17:45;;;;;;;14.20;3.55;;;;;;;;;;4981886;28;20105;-69
2022/01/22 00:20:13;;;;;;;14.18;3.83;;;;;;;;;;4979692;28;20041;-69
2022/01/22 00:22:42;;;;;;;12.32;3.58;;;;;;;;;;4982321;28;20038;-70
2022/01/22 00:25:11;;;;;;;16.98;4.80;;;;;;;;;;4978196;28;20111;-69
2022/01/22 00:27:39;;;;;;;12.85;3.70;;;;;;;;;;4981732;28;20029;-69
2022/01/22 00:30:07;;;;;;;15.93;4.07;;;;;;;;;;4991113;28;20041;-69
2022/01/22 00:32:36;;;;;;;13.75;3.30;;;;;;;;;;4980225;28;20038;-69
2022/01/22 00:35:05;;;;;;;14.18;3.67;;;;;;;;;;4980107;28;21002;-69
2022/01/22 00:37:32;;;;;;;13.40;3.22;;;;;;;;;;4983256;28;20496;-69
2022/01/22 00:39:59;;;;;;;15.23;3.33;;;;;;;;;;4981292;28;20034;-69
2022/01/22 00:42:31;;;;;;;28.20;13.88;;;;;;;;;;4982464;28;20042;-69
2022/01/22 00:45:02;;;;;;;22.00;8.70;;;;;;;;;;4951432;28;20030;-69
2022/01/22 00:47:29;;;;;;;13.63;4.80;;;;;;;;;;4987988;28;20165;-69
2022/01/22 00:49:58;;;;;;;15.05;3.97;;;;;;;;;;4980376;28;20488;-70
2022/01/22 00:52:28;;;;;;;13.43;3.40;;;;;;;;;;4981849;28;20054;-69
2022/01/22 00:54:55;;;;;;;14.60;3.65;;;;;;;;;;4967395;28;20038;-70
2022/01/22 00:57:23;;;;;;;15.30;4.10;;;;;;;;;;4988836;28;20030;-69
2022/01/22 00:59:50;;;;;;;12.93;3.42;;;;;;;;;;4982946;28;20030;-69
2022/01/22 01:02:19;;;;;;;19.13;4.85;;;;;;;;;;4983721;28;20079;-69
2022/01/22 01:04:47;;;;;;;19.73;7.18;;;;;;;;;;4979828;28;20042;-69
2022/01/22 01:07:15;;;;;;;15.82;4.57;;;;;;;;;;4987729;28;20042;-70
2022/01/22 01:10:07;;;;;;;25.08;9.48;;;;;;;;;;4986041;28;20037;-68
2022/01/22 01:12:39;;;;;;;14.82;4.85;;;;;;;;;;4983847;28;20083;-69
2022/01/22 01:32:07;;;;;;;14.85;3.50;;;;;;;;;;4981086;28;20762;-69
2022/01/22 01:34:40;;;;;;;19.08;3.60;;;;;;;;;;4982286;28;20104;-69
2022/01/22 01:37:21;;;;;;;16.13;3.75;;;;;;;;;;4985350;28;20037;-69
2022/01/22 01:39:51;;;;;;;12.90;3.35;;;;;;;;;;4980485;28;20164;-69
2022/01/22 01:45:04;;;;;;;13.73;3.58;;;;;;;;;;4976765;28;20038;-69
2022/01/22 01:47:31;;;;;;;10.63;3.10;;;;;;;;;;4979333;28;20499;-69
2022/01/22 01:49:58;;;;;;;16.13;3.63;;;;;;;;;;4976748;28;20041;-69
2022/01/22 01:52:40;;;;;;;13.82;3.08;;;;;;;;;;4979914;28;20022;-69
2022/01/22 01:55:14;;;;;;;15.65;3.50;;;;;;;;;;4978490;28;20101;-69
2022/01/22 01:57:43;;;;;;;13.90;3.40;;;;;;;;;;4979043;28;20061;-69
2022/01/22 02:00:14;;;;;;;13.15;3.05;;;;;;;;;;4981083;28;20118;-69
2022/01/22 02:02:42;;;;;;;11.95;2.90;;;;;;;;;;4968511;28;20659;-69
2022/01/22 02:05:12;;;;;;;14.25;3.22;;;;;;;;;;4992592;28;20653;-69
2022/01/22 02:07:41;;;;;;;14.73;3.63;;;;;;;;;;4980081;28;20050;-70
2022/01/22 02:10:14;;;;;;;12.15;3.10;;;;;;;;;;4977193;28;20172;-69
2022/01/22 02:23:44;;;;;;;10.38;3.17;;;;;;;;;;4981383;28;20056;-68
2022/01/22 02:26:13;;;;;;;16.60;3.97;;;;;;;;;;4980043;28;20047;-68
2022/01/22 02:28:41;;;;;;;12.85;3.30;;;;;;;;;;4969777;28;20046;-68
2022/01/22 02:31:28;;;;;;;15.27;3.38;;;;;;;;;;4974493;28;20104;-69
2022/01/22 02:36:30;;;;;;;11.73;3.25;;;;;;;;;;4983488;28;20112;-69
2022/01/22 02:41:41;;;;;;;12.90;2.92;;;;;;;;;;4983069;28;20046;-69
2022/01/22 02:44:14;;;;;;;10.87;2.87;;;;;;;;;;4979070;28;20053;-69
2022/01/22 02:46:45;;;;;;;14.05;2.83;;;;;;;;;;4994778;28;20283;-69
2022/01/22 02:49:12;;;;;;;14.43;3.20;;;;;;;;;;4980309;28;20156;-69
2022/01/22 02:51:41;;;;;;;11.15;3.00;;;;;;;;;;4983498;28;20129;-69
2022/01/22 02:54:09;;;;;;;15.23;3.40;;;;;;;;;;4980456;28;20034;-69
2022/01/22 02:56:37;;;;;;;11.15;2.80;;;;;;;;;;4984740;28;20058;-69
2022/01/22 02:59:06;;;;;;;10.48;3.42;;;;;;;;;;4980233;28;20837;-69
2022/01/22 03:01:34;;;;;;;14.20;3.42;;;;;;;;;;4982380;28;20818;-69
2022/01/22 03:04:02;;;;;;;10.57;3.47;;;;;;;;;;4976347;28;20050;-69
2022/01/22 03:06:30;;;;;;;12.10;3.17;;;;;;;;;;4982162;28;20022;-69
2022/01/22 03:09:00;;;;;;;13.20;3.13;;;;;;;;;;4976940;28;20033;-69
2022/01/22 03:11:30;;;;;;;11.20;3.00;;;;;;;;;;4984175;28;20041;-69
2022/01/22 03:19:18;;;;;;;12.80;3.03;;;;;;;;;;4981141;28;20617;-70
2022/01/22 03:22:00;;;;;;;12.88;3.03;;;;;;;;;;4978498;28;20521;-67
2022/01/22 03:27:20;;;;;;;13.45;3.22;;;;;;;;;;4981673;28;20049;-70
2022/01/22 03:29:50;;;;;;;10.88;2.90;;;;;;;;;;4979242;28;20441;-70
2022/01/22 03:32:17;;;;;;;12.70;3.25;;;;;;;;;;4995517;28;20033;-70
2022/01/22 03:35:01;;;;;;;10.95;3.58;;;;;;;;;;4982102;28;20733;-70
2022/01/22 03:37:35;;;;;;;12.80;3.70;;;;;;;;;;4985016;28;20482;-70
2022/01/22 03:40:05;;;;;;;13.77;3.58;;;;;;;;;;4974639;28;20030;-70
2022/01/22 03:42:34;;;;;;;14.05;3.63;;;;;;;;;;4976792;28;20119;-68
2022/01/22 03:45:03;;;;;;;10.88;3.53;;;;;;;;;;4979379;28;20061;-68
2022/01/22 03:47:30;;;;;;;12.77;3.70;;;;;;;;;;4984064;28;20021;-69
2022/01/22 03:49:56;;;;;;;11.52;3.45;;;;;;;;;;4993395;28;20465;-68
2022/01/22 03:52:23;;;;;;;;;;;;;;;;;;4981096;28;20026;-69
2022/01/22 03:54:51;;;;;;;10.83;3.40;;;;;;;;;;4980705;28;20630;-71
2022/01/22 03:57:21;;;;;;;13.32;3.13;;;;;;;;;;4982982;28;20133;-68
2022/01/22 03:59:51;;;;;;;14.98;3.20;;;;;;;;;;4977403;28;20073;-69
2022/01/22 04:05:07;;;;;;;14.38;3.30;;;;;;;;;;4974981;28;20164;-67
2022/01/22 04:10:23;;;;;;;13.05;3.28;;;;;;;;;;4982869;28;20045;-69
2022/01/22 04:15:28;;;;;;;14.80;3.58;;;;;;;;;;4984947;28;20204;-69
2022/01/22 04:26:31;;;;;;;14.35;3.05;;;;;;;;;;5005770;28;20076;-68
2022/01/22 04:28:59;;;;;;;11.95;3.03;;;;;;;;;;5004595;28;20492;-69
2022/01/22 04:31:28;;;;;;;17.95;3.50;;;;;;;;;;5006575;28;20072;-69
2022/01/22 04:33:58;;;;;;;14.52;3.50;;;;;;;;;;4989854;28;20108;-69
2022/01/22 04:36:26;;;;;;;12.95;3.33;;;;;;;;;;5005370;28;20064;-69
2022/01/22 04:38:53;;;;;;;11.88;3.17;;;;;;;;;;5002194;28;20044;-69
2022/01/22 04:41:21;;;;;;;12.00;3.10;;;;;;;;;;5002177;28;20038;-69
2022/01/22 04:43:56;;;;;;;16.35;3.22;;;;;;;;;;5003274;28;20025;-69
2022/01/22 04:46:37;;;;;;;14.82;3.53;;;;;;;;;;5004876;28;20638;-69
2022/01/22 04:57:05;;;;;;;11.75;2.92;;;;;;;;;;5002257;28;20762;-69
2022/01/22 04:59:32;;;;;;;13.80;3.15;;;;;;;;;;5005551;28;20032;-70
2022/01/22 05:02:02;;;;;;;11.35;3.22;;;;;;;;;;4990732;28;20034;-70
2022/01/22 05:04:28;;;;;;;14.43;3.03;;;;;;;;;;4990176;28;20061;-69
2022/01/22 05:06:58;;;;;;;10.55;2.63;;;;;;;;;;4982382;28;20030;-70
2022/01/22 05:09:26;;;;;;;13.25;3.25;;;;;;;;;;5003332;28;20046;-70
2022/01/22 05:11:53;;;;;;;12.63;3.30;;;;;;;;;;4988242;28;21453;-70
2022/01/22 05:14:23;;;;;;;12.80;3.20;;;;;;;;;;4986339;28;20033;-70
2022/01/22 05:16:54;;;;;;;13.60;2.42;;;;;;;;;;4984016;28;20354;-69
2022/01/22 05:19:36;;;;;;;12.43;3.20;;;;;;;;;;4987577;28;20046;-68
2022/01/22 05:25:05;;;;;;;11.68;2.65;;;;;;;;;;4977405;28;20611;-70
2022/01/22 05:27:52;;;;;;;10.75;2.63;;;;;;;;;;4982714;28;20037;-69
2022/01/22 05:33:14;;;;;;;14.18;3.17;;;;;;;;;;4980641;28;20050;-69
2022/01/22 05:38:34;;;;;;;11.18;2.90;;;;;;;;;;4994515;28;20115;-69
2022/01/22 05:41:01;;;;;;;13.18;2.88;;;;;;;;;;5002849;28;20504;-70
2022/01/22 05:43:28;;;;;;;14.63;3.13;;;;;;;;;;5007650;28;20040;-69
2022/01/22 05:45:55;;;;;;;12.73;3.10;;;;;;;;;;4984678;28;20045;-68
2022/01/22 05:48:24;;;;;;;13.40;3.08;;;;;;;;;;4991393;28;20056;-69
2022/01/22 05:51:01;;;;;;;12.13;2.97;;;;;;;;;;4981943;28;20072;-69
2022/01/22 06:01:43;;;;;;;12.07;2.60;;;;;;;;;;5005885;28;20086;-69
2022/01/22 06:04:12;;;;;;;11.68;2.67;;;;;;;;;;5003896;28;20630;-69
2022/01/22 06:06:39;;;;;;;10.73;2.67;;;;;;;;;;4999994;28;20036;-69
2022/01/22 06:09:09;;;;;;;11.38;2.60;;;;;;;;;;4976747;28;20034;-69
2022/01/22 06:11:51;;;;;;;11.30;2.92;;;;;;;;;;4979762;28;20054;-69
2022/01/22 06:14:21;;;;;;;11.40;2.90;;;;;;;;;;4986995;28;20061;-70
2022/01/22 06:16:48;;;;;;;15.38;4.05;;;;;;;;;;4980521;28;20070;-70
2022/01/22 06:19:17;;;;;;;15.30;3.17;;;;;;;;;;4984729;28;20027;-69
2022/01/22 06:21:44;;;;;;;12.68;3.25;;;;;;;;;;4979718;28;20026;-70
2022/01/22 06:24:12;;;;;;;13.82;3.50;;;;;;;;;;4980831;28;20038;-69
2022/01/22 06:26:41;;;;;;;14.13;3.40;;;;;;;;;;4983288;28;20038;-70
2022/01/22 06:29:10;;;;;;;16.85;4.78;;;;;;;;;;4982422;28;21012;-70
2022/01/22 06:31:37;;;;;;;12.98;4.20;;;;;;;;;;4987355;28;20050;-69
2022/01/22 06:34:05;;;;;;;13.23;4.30;;;;;;;;;;4980336;28;21471;-70
2022/01/22 06:36:32;;;;;;;19.95;5.00;;;;;;;;;;4983628;28;20052;-69
2022/01/22 06:39:21;;;;;;;16.05;4.10;;;;;;;;;;4980247;28;20034;-68
2022/01/22 06:41:48;;;;;;;10.98;3.63;;;;;;;;;;4982750;28;20049;-69
2022/01/22 06:44:21;;;;;;;14.40;4.43;;;;;;;;;;4982154;28;20034;-70
2022/01/22 06:46:50;;;;;;;13.52;4.00;;;;;;;;;;4983258;28;20034;-69
2022/01/22 06:49:20;;;;;;;14.18;4.40;;;;;;;;;;4984835;28;20037;-69
2022/01/22 06:51:47;;;;;;;11.52;3.85;;;;;;;;;;4976920;28;20132;-68
2022/01/22 06:54:14;;;;;;;14.13;4.20;;;;;;;;;;4978705;28;20485;-69
2022/01/22 06:56:41;;;;;;;;;;;;;;;;;;4980286;28;20034;-69
2022/01/22 06:59:11;;;;;;;11.30;3.72;;;;;;;;;;4980674;28;19917;-69
2022/01/22 07:01:40;;;;;;;14.35;4.30;;;;;;;;;;4984094;28;20030;-70
2022/01/22 07:04:09;;;;;;;12.77;3.90;;;;;;;;;;4979523;28;20069;-69
2022/01/22 07:06:35;;;;;;;13.98;4.07;;;;;;;;;;4984853;28;20042;-69
2022/01/22 07:09:04;;;;;;;12.32;3.97;;;;;;;;;;4978348;28;20037;-69
2022/01/22 07:11:32;;;;;;;12.75;4.28;;;;;;;;;;4984851;28;20026;-69
2022/01/22 07:13:58;;;;;;;10.70;3.67;;;;;;;;;;4976526;28;20034;-70
2022/01/22 07:16:25;;;;;;;;;;;;;;;;;;4980963;28;20492;-69
2022/01/22 07:18:58;;;;;;;14.93;4.87;;;;;;;;;;4976164;28;19913;-70
2022/01/22 07:21:29;;;;;;;14.88;5.57;;;;;;;;;;4979277;28;20054;-70
2022/01/22 07:26:34;;;;;;;14.50;5.15;;;;;;;;;;4985168;28;20044;-70
2022/01/22 07:29:00;;;;;;;16.52;5.50;;;;;;;;;;4981049;28;20053;-70
2022/01/22 07:31:27;;;;;;;14.50;5.00;;;;;;;;;;4984225;28;20057;-69
2022/01/22 07:33:55;;;;;;;15.13;5.32;;;;;;;;;;4976749;28;20098;-69
2022/01/22 07:36:22;;;;;;;16.40;6.78;;;;;;;;;;4984102;28;20090;-70
2022/01/22 07:38:50;;;;;;;15.18;6.22;;;;;;;;;;4968280;28;20026;-70
2022/01/22 07:41:18;;;;;;;15.00;6.32;;;;;;;;;;4980759;28;20030;-70
2022/01/22 07:43:48;;;;;;;17.33;6.07;;;;;;;;;;4963635;28;20159;-70
2022/01/22 07:46:15;;;;;;;15.88;5.40;;;;;;;;;;4984106;28;20562;-70
2022/01/22 07:48:41;;;;;;;16.50;6.53;;;;;;;;;;4983541;28;20037;-70
2022/01/22 07:51:14;;;;;;;15.32;6.45;;;;;;;;;;4981560;28;20042;-70
2022/01/22 07:53:45;;;;;;;15.23;6.38;;;;;;;;;;4980847;28;20086;-71
2022/01/22 07:56:25;;;;;;;18.77;6.30;;;;;;;;;;4981328;28;20107;-69
2022/01/22 07:58:51;;;;;;;15.00;5.28;;;;;;;;;;4960554;28;20185;-70
2022/01/22 08:01:18;;;;;;;;;;;;;;;;;;4968798;28;20041;-70
2022/01/22 08:03:45;;;;;;;14.23;4.45;;;;;;;;;;4980355;28;19921;-69
2022/01/22 08:06:12;;;;;;;14.43;4.82;;;;;;;;;;4980369;28;20104;-71
2022/01/22 08:08:42;;;;;;;11.90;4.00;;;;;;;;;;4981442;28;20037;-69
2022/01/22 08:11:09;;;;;;;13.68;4.78;;;;;;;;;;4980922;28;20865;-69
2022/01/22 08:13:35;;;;;;;13.32;5.03;;;;;;;;;;4982606;28;20057;-68
2022/01/22 08:16:02;;;;;;;12.20;4.25;;;;;;;;;;4979669;28;20029;-70
2022/01/22 08:18:32;;;;;;;13.00;4.43;;;;;;;;;;4983689;28;20026;-70
2022/01/22 08:20:58;;;;;;;13.38;4.32;;;;;;;;;;4979851;28;20115;-70
2022/01/22 08:23:24;;;;;;;;;;;;;;;;;;4984133;28;20148;-71
2022/01/22 08:25:51;;;;;;;13.20;4.80;;;;;;;;;;4974746;28;20352;-70
2022/01/22 08:31:18;;;;;;;13.80;5.30;;;;;;;;;;4974471;28;20038;-70
2022/01/22 08:36:30;;;;;;;14.27;5.55;;;;;;;;;;4976815;28;20045;-70
2022/01/22 08:38:57;;;;;;;15.43;6.10;;;;;;;;;;4976762;28;20030;-71
2022/01/22 08:41:24;;;;;;;14.43;6.00;;;;;;;;;;4978896;28;20022;-70
2022/01/22 08:43:53;;;;;;;15.93;7.10;;;;;;;;;;4975103;28;20034;-70
2022/01/22 08:46:20;;;;;;;16.30;6.80;;;;;;;;;;4980531;28;20033;-70
2022/01/22 08:48:47;;;;;;;17.27;7.32;;;;;;;;;;4977768;28;20079;-70
2022/01/22 08:51:16;;;;;;;16.55;6.60;;;;;;;;;;4980213;28;20756;-69
2022/01/22 08:53:44;;;;;;;17.10;7.30;;;;;;;;;;4991583;28;20505;-70
2022/01/22 08:56:12;;;;;;;16.80;7.30;;;;;;;;;;4980463;28;20101;-70
2022/01/22 08:58:40;;;;;;;15.63;6.32;;;;;;;;;;4980565;28;20023;-70
2022/01/22 09:01:09;;;;;;;14.25;6.90;;;;;;;;;;4980158;28;20088;-70
2022/01/22 09:03:37;;;;;;;17.15;6.40;;;;;;;;;;4986003;28;20034;-70
2022/01/22 09:06:06;;;;;;;15.45;6.78;;;;;;;;;;4980358;28;20172;-71
2022/01/22 09:08:37;;;;;;;11.88;4.50;;;;;;;;;;4982114;28;20610;-72
2022/01/22 09:11:06;;;;;;;12.05;3.70;;;;;;;;;;4980711;28;22079;-69
2022/01/22 09:13:34;;;;;;;16.10;4.07;;;;;;;;;;4982683;28;20477;-70
2022/01/22 09:16:01;;;;;;;11.15;3.42;;;;;;;;;;4981958;28;20290;-70
2022/01/22 09:18:28;;;;;;;10.93;4.00;;;;;;;;;;4979850;28;20022;-70
2022/01/22 09:21:04;;;;;;;13.13;3.72;;;;;;;;;;4977908;28;20042;-70
2022/01/22 09:23:33;;;;;;;13.13;4.53;;;;;;;;;;4981910;28;20083;-70
2022/01/22 09:26:03;;;;;;;12.00;3.60;;;;;;;;;;4973694;28;20283;-70
2022/01/22 09:28:43;;;;;;;11.82;4.22;;;;;;;;;;4985922;28;20614;-71
2022/01/22 09:31:11;;;;;;;13.90;3.85;;;;;;;;;;4987792;28;20038;-70
2022/01/22 09:33:43;;;;;;;10.57;4.05;;;;;;;;;;4988029;28;20525;-70
2022/01/22 09:36:12;;;;;;;14.05;4.32;;;;;;;;;;4990157;28;20040;-70
2022/01/22 09:38:44;;;;;;;11.35;3.92;;;;;;;;;;4986035;28;20045;-70
2022/01/22 09:41:14;;;;;;;11.95;3.58;;;;;;;;;;4988647;28;20014;-70
2022/01/22 09:43:40;;;;;;;13.75;3.90;;;;;;;;;;4989517;28;20088;-70
2022/01/22 09:46:11;;;;;;;12.48;4.05;;;;;;;;;;4980784;28;20054;-69
2022/01/22 09:48:46;;;;;;;12.48;4.13;;;;;;;;;;4967304;28;20048;-70
2022/01/22 09:51:13;;;;;;;13.57;3.72;;;;;;;;;;4976355;28;20383;-69
2022/01/22 09:53:42;;;;;;;12.30;3.33;;;;;;;;;;4973184;28;20034;-69
2022/01/22 09:56:09;;;;;;;12.52;3.63;;;;;;;;;;4987051;28;20046;-70
2022/01/22 09:58:36;;;;;;;12.23;4.25;;;;;;;;;;4993696;28;20044;-70
2022/01/22 10:01:22;;;;;;;14.88;4.20;;;;;;;;;;4984411;28;20125;-69
2022/01/22 10:03:54;;;;;;;10.30;3.58;;;;;;;;;;4987862;28;20090;-69
2022/01/22 10:06:26;;;;;;;10.27;3.80;;;;;;;;;;4992233;28;20126;-69
2022/01/22 10:08:57;;;;;;;14.48;4.30;;;;;;;;;;4983525;28;20080;-69
2022/01/22 10:11:25;;;;;;;11.30;4.32;;;;;;;;;;4987437;28;20161;-70
2022/01/22 10:14:00;;;;;;;13.32;4.63;;;;;;;;;;4983618;28;20041;-70
2022/01/22 10:16:36;;;;;;;10.88;3.70;;;;;;;;;;4984621;28;20124;-71
2022/01/22 10:19:15;;;;;;;11.85;3.75;;;;;;;;;;4981072;28;20040;-70
2022/01/22 10:21:49;;;;;;;12.82;3.90;;;;;;;;;;4984318;28;20203;-70
2022/01/22 10:24:39;;;;;;;13.00;3.60;;;;;;;;;;4973008;28;20038;-70
2022/01/22 10:27:38;;;;;;;11.60;3.58;;;;;;;;;;4957175;28;20033;-70
2022/01/22 10:30:16;;;;;;;11.45;3.20;;;;;;;;;;4967115;28;20469;-70
2022/01/22 10:35:32;;;;;;;12.95;4.60;;;;;;;;;;4969936;28;20041;-70
2022/01/22 10:38:01;;;;;;;10.65;3.97;;;;;;;;;;4952401;28;20030;-69
2022/01/22 10:40:32;;;;;;;11.00;3.88;;;;;;;;;;4957676;28;20160;-69
2022/01/22 10:43:21;;;;;;;9.65;3.15;;;;;;;;;;4955354;28;20040;-69
2022/01/22 10:46:07;;;;;;;10.88;3.75;;;;;;;;;;4951538;28;20365;-70
2022/01/22 10:48:36;;;;;;;11.38;4.10;;;;;;;;;;4962148;28;20041;-69
2022/01/22 10:51:15;;;;;;;11.20;4.20;;;;;;;;;;4956409;28;20053;-70
2022/01/22 10:53:59;;;;;;;10.88;4.35;;;;;;;;;;4958334;28;20591;-70
2022/01/22 10:56:31;;;;;;;11.05;3.55;;;;;;;;;;4960303;28;20041;-70
2022/01/22 10:59:06;;;;;;;10.32;3.70;;;;;;;;;;4955553;28;20903;-71
2022/01/22 11:01:53;;;;;;;10.70;4.43;;;;;;;;;;4969543;28;20052;-69
2022/01/22 11:04:22;;;;;;;10.13;3.33;;;;;;;;;;4988495;28;20041;-69
2022/01/22 11:06:56;;;;;;;13.70;3.25;;;;;;;;;;4987401;28;20391;-69
2022/01/22 11:09:23;;;;;;;11.18;3.40;;;;;;;;;;4984996;28;20091;-70
2022/01/22 11:11:51;;;;;;;9.68;2.83;;;;;;;;;;4980923;28;20034;-70
2022/01/22 11:14:18;;;;;;;9.85;3.00;;;;;;;;;;4980165;28;20162;-70
2022/01/22 11:16:45;;;;;;;10.60;3.47;;;;;;;;;;4982212;28;20033;-71
2022/01/22 11:19:20;;;;;;;9.35;3.03;;;;;;;;;;4985639;28;20037;-70
2022/01/22 11:21:49;;;;;;;10.43;2.97;;;;;;;;;;4986593;28;20508;-69
2022/01/22 11:24:20;;;;;;;10.55;3.10;;;;;;;;;;4985349;28;20038;-69
2022/01/22 11:27:00;;;;;;;10.35;2.80;;;;;;;;;;4979249;28;20034;-69
2022/01/22 11:29:30;;;;;;;9.27;2.80;;;;;;;;;;4987188;28;20048;-70
2022/01/22 11:32:01;;;;;;;11.02;3.65;;;;;;;;;;4985563;28;20962;-69
2022/01/22 11:34:32;;;;;;;10.70;3.65;;;;;;;;;;4987387;28;20033;-70
2022/01/22 11:37:04;;;;;;;10.98;3.42;;;;;;;;;;4986540;28;20614;-70
2022/01/22 11:39:31;;;;;;;10.73;3.58;;;;;;;;;;4987159;28;20065;-70
2022/01/22 11:41:59;;;;;;;10.25;3.70;;;;;;;;;;4981377;28;20125;-70
2022/01/22 11:44:27;;;;;;;11.50;3.83;;;;;;;;;;4985315;28;20041;-70
2022/01/22 11:47:07;;;;;;;9.93;3.30;;;;;;;;;;4982394;28;20041;-70
2022/01/22 11:49:34;;;;;;;10.65;3.55;;;;;;;;;;4983087;28;20037;-70
2022/01/22 11:52:15;;;;;;;8.98;3.22;;;;;;;;;;4986550;28;20046;-70
2022/01/22 11:54:59;;;;;;;11.80;4.38;;;;;;;;;;4987377;28;20030;-70
2022/01/22 11:57:28;;;;;;;10.32;3.47;;;;;;;;;;4986778;28;20033;-70
2022/01/22 12:00:16;;;;;;;9.60;3.28;;;;;;;;;;4965887;28;20057;-69
2022/01/22 12:02:49;;;;;;;11.07;3.08;;;;;;;;;;4981368;28;20034;-72
2022/01/22 12:05:17;;;;;;;9.32;3.15;;;;;;;;;;4987146;28;20041;-70
2022/01/22 12:07:57;;;;;;;11.30;4.25;;;;;;;;;;4985845;28;20125;-71
2022/01/22 12:10:37;;;;;;;11.68;3.78;;;;;;;;;;4985723;28;20472;-70
2022/01/22 12:16:08;;;;;;;10.98;3.42;;;;;;;;;;4984640;28;20419;-71
2022/01/22 12:18:42;;;;;;;8.73;2.90;;;;;;;;;;4986462;28;20034;-71
2022/01/22 12:21:33;;;;;;;10.57;3.10;;;;;;;;;;4987192;28;20031;-70
2022/01/22 12:24:04;;;;;;;8.35;2.70;;;;;;;;;;4981516;28;20489;-69
2022/01/22 12:27:07;;;;;;;9.07;2.80;;;;;;;;;;4986627;28;20029;-70
2022/01/22 12:29:37;;;;;;;7.95;2.35;;;;;;;;;;4996335;28;20169;-70
2022/01/22 12:32:14;;;;;;;10.45;2.38;;;;;;;;;;4982848;28;20034;-70
2022/01/22 12:35:05;;;;;;;11.98;2.42;;;;;;;;;;4989851;28;20132;-70
2022/01/22 12:37:38;;;;;;;9.32;2.75;;;;;;;;;;4991137;28;20116;-71
2022/01/22 12:40:09;;;;;;;10.77;2.80;;;;;;;;;;4990198;28;20057;-71
2022/01/22 12:43:20;;;;;;;11.02;2.50;;;;;;;;;;4990284;28;20029;-71
2022/01/22 12:45:44;;;;;;;7.72;2.50;;;;;;;;;;4987531;28;20512;-71
2022/01/22 12:48:16;;;;;;;8.23;2.53;;;;;;;;;;4989925;28;20066;-71
2022/01/22 12:50:44;;;;;;;8.45;3.17;;;;;;;;;;4986716;28;20030;-71
2022/01/22 12:53:15;;;;;;;9.45;3.30;;;;;;;;;;4987345;28;20042;-71
2022/01/22 12:58:40;;;;;;;8.45;2.88;;;;;;;;;;4972937;28;20139;-70
2022/01/22 13:01:10;;;;;;;9.68;3.17;;;;;;;;;;4956662;28;20509;-71
2022/01/22 13:03:39;;;;;;;8.70;2.72;;;;;;;;;;4985375;28;20046;-70
2022/01/22 13:06:07;;;;;;;8.73;2.67;;;;;;;;;;4967922;28;20042;-70
2022/01/22 13:08:36;;;;;;;10.27;3.83;;;;;;;;;;4986267;28;20056;-70
2022/01/22 13:11:07;;;;;;;8.23;2.78;;;;;;;;;;4984064;28;21668;-69
2022/01/22 13:13:40;;;;;;;11.65;3.58;;;;;;;;;;4985486;28;20037;-69
2022/01/22 13:16:13;;;;;;;12.90;4.25;;;;;;;;;;4986521;28;20070;-70
2022/01/22 13:18:57;;;;;;;11.68;4.20;;;;;;;;;;4986890;28;20021;-67
2022/01/22 13:21:31;;;;;;;10.20;3.65;;;;;;;;;;4986689;28;20169;-67
2022/01/22 13:24:14;;;;;;;11.73;3.80;;;;;;;;;;4978895;28;20037;-69
2022/01/22 13:26:51;;;;;;;10.55;3.75;;;;;;;;;;4982970;28;20168;-70
2022/01/22 13:29:22;;;;;;;10.02;4.57;;;;;;;;;;4985633;28;20042;-69
2022/01/22 13:32:33;;;;;;;11.63;4.25;;;;;;;;;;4982613;28;20038;-69
2022/01/22 13:38:30;;;;;;;10.30;3.40;;;;;;;;;;4985974;28;20095;-69
2022/01/22 13:49:29;;;;;;;11.50;4.55;;;;;;;;;;4972808;28;20077;-69
2022/01/22 13:51:59;;;;;;;10.50;4.10;;;;;;;;;;4967779;28;20053;-69
2022/01/22 13:54:30;;;;;;;10.57;3.20;;;;;;;;;;4970139;28;20042;-69
2022/01/22 13:57:03;;;;;;;10.75;3.47;;;;;;;;;;4969867;28;20101;-70
2022/01/22 13:59:45;;;;;;;9.68;3.47;;;;;;;;;;4972382;28;20129;-69
2022/01/22 14:04:53;;;;;;;13.00;5.60;;;;;;;;;;4970137;28;20051;-70
2022/01/22 14:07:24;;;;;;;13.05;4.30;;;;;;;;;;4970491;28;20536;-71
2022/01/22 14:10:02;;;;;;;9.70;3.30;;;;;;;;;;4966491;28;20045;-71
2022/01/22 14:12:35;;;;;;;24.17;13.20;;;;;;;;;;4970535;28;20034;-71
2022/01/22 14:15:07;;;;;;;15.35;7.78;;;;;;;;;;4952439;28;20050;-68
2022/01/22 14:17:38;;;;;;;13.77;6.03;;;;;;;;;;4971089;28;20038;-67
2022/01/22 14:20:11;;;;;;;23.20;13.82;;;;;;;;;;4968837;28;21394;-67
2022/01/22 14:22:59;;;;;;;16.55;7.95;;;;;;;;;;4992807;28;20122;-66
2022/01/22 14:25:31;;;;;;;13.02;5.85;;;;;;;;;;5001906;28;20139;-66
2022/01/22 14:28:12;;;;;;;12.15;4.80;;;;;;;;;;4988691;28;20121;-68
2022/01/22 14:30:43;;;;;;;16.90;10.20;;;;;;;;;;4986905;28;20477;-68
2022/01/22 14:33:15;;;;;;;12.55;6.50;;;;;;;;;;4987465;28;20050;-66
2022/01/22 14:35:44;;;;;;;11.00;5.30;;;;;;;;;;4971492;28;20045;-66
2022/01/22 14:38:35;;;;;;;13.38;6.40;;;;;;;;;;4985269;28;20117;-66
2022/01/22 14:44:40;;;;;;;13.00;6.05;;;;;;;;;;4982311;28;20447;-68
2022/01/22 14:46:57;;;;;;;17.83;9.25;;;;;;;;;;4982134;28;20047;-66
2022/01/22 14:49:34;;;;;;;14.57;6.55;;;;;;;;;;4981410;28;20030;-66
2022/01/22 14:52:01;;;;;;;13.00;6.93;;;;;;;;;;4983469;28;20044;-66
2022/01/22 14:54:29;;;;;;;16.73;8.65;;;;;;;;;;4982542;28;20033;-66
2022/01/22 14:56:58;;;;;;;18.58;10.20;;;;;;;;;;4963044;28;20038;-68
2022/01/22 14:59:26;;;;;;;20.08;12.38;;;;;;;;;;4972525;28;20521;-68
2022/01/22 15:01:56;;;;;;;17.15;10.73;;;;;;;;;;4961813;28;20096;-68
2022/01/22 15:04:24;;;;;;;21.90;13.55;;;;;;;;;;4968651;28;20046;-66
2022/01/22 15:06:51;;;;;;;18.90;8.95;;;;;;;;;;4932400;28;20053;-66
2022/01/22 15:09:19;;;;;;;17.77;8.95;;;;;;;;;;4966130;28;20111;-70
2022/01/22 15:11:46;;;;;;;16.90;9.23;;;;;;;;;;4943973;28;20044;-69
2022/01/22 15:14:15;;;;;;;14.05;7.57;;;;;;;;;;4967803;28;20038;-69
2022/01/22 15:16:49;;;;;;;16.83;7.47;;;;;;;;;;4966255;28;20109;-69
2022/01/22 15:19:23;;;;;;;20.02;11.57;;;;;;;;;;4968684;28;20062;-70
2022/01/22 15:22:00;;;;;;;19.35;11.00;;;;;;;;;;4963974;28;20516;-70
2022/01/22 15:24:28;;;;;;;15.65;8.50;;;;;;;;;;4967251;28;20039;-69
2022/01/22 15:26:56;;;;;;;17.77;8.05;;;;;;;;;;4965178;28;20038;-70
2022/01/22 15:29:26;;;;;;;14.77;6.63;;;;;;;;;;4951955;28;20030;-70
2022/01/22 15:37:02;;;;;;;13.82;6.78;;;;;;;;;;4920354;28;20122;-69
2022/01/22 15:39:29;;;;;;;14.00;7.40;;;;;;;;;;4920228;28;20595;-69
2022/01/22 15:42:02;;;;;;;12.15;4.80;;;;;;;;;;4937275;28;20043;-69
2022/01/22 15:44:29;;;;;;;10.80;4.57;;;;;;;;;;4939620;28;20034;-69
2022/01/22 15:46:57;;;;;;;9.88;3.40;;;;;;;;;;4934488;28;20042;-69
2022/01/22 15:49:26;;;;;;;10.20;4.07;;;;;;;;;;4935497;28;20069;-71
2022/01/22 15:51:57;;;;;;;11.32;4.28;;;;;;;;;;4942272;28;20153;-69
2022/01/22 15:54:26;;;;;;;10.32;3.70;;;;;;;;;;4960836;28;20046;-69
2022/01/22 15:56:53;;;;;;;9.82;3.85;;;;;;;;;;4956324;28;20041;-69
2022/01/22 15:59:21;;;;;;;11.18;4.95;;;;;;;;;;4947594;28;20022;-69
2022/01/22 16:01:49;;;;;;;10.95;5.13;;;;;;;;;;4958712;28;20428;-69
2022/01/22 16:04:17;;;;;;;12.00;4.65;;;;;;;;;;4986773;28;20042;-69
2022/01/22 16:09:20;;;;;;;12.38;5.80;;;;;;;;;;4979537;28;20497;-70
2022/01/22 16:11:52;;;;;;;13.05;6.30;;;;;;;;;;4980535;28;20037;-69
2022/01/22 16:14:21;;;;;;;12.27;5.95;;;;;;;;;;4984880;28;20030;-69
2022/01/22 16:16:49;;;;;;;18.92;10.40;;;;;;;;;;4985359;28;20025;-69
2022/01/22 16:19:23;;;;;;;24.80;14.63;;;;;;;;;;4988084;28;20061;-71
2022/01/22 16:21:53;;;;;;;17.20;9.10;;;;;;;;;;4984099;28;20139;-69
2022/01/22 16:24:21;;;;;;;14.18;7.38;;;;;;;;;;4988679;28;20805;-70
2022/01/22 16:26:48;;;;;;;14.85;7.35;;;;;;;;;;4988377;28;20057;-69
2022/01/22 16:29:16;;;;;;;15.55;7.78;;;;;;;;;;4983394;28;22040;-69
2022/01/22 16:31:44;;;;;;;18.02;9.63;;;;;;;;;;4983961;28;20033;-70
2022/01/22 16:34:11;;;;;;;18.10;9.05;;;;;;;;;;4982724;28;20397;-70
2022/01/22 16:36:39;;;;;;;17.85;9.77;;;;;;;;;;4982622;28;20084;-70
2022/01/22 16:39:06;;;;;;;22.13;10.52;;;;;;;;;;4974377;28;22103;-70
2022/01/22 16:41:34;;;;;;;20.92;11.27;;;;;;;;;;4981680;28;20018;-70
2022/01/22 16:44:12;;;;;;;17.95;9.38;;;;;;;;;;4979014;28;20045;-69
2022/01/22 16:52:31;;;;;;;20.92;9.30;;;;;;;;;;4962754;28;20121;-70
2022/01/22 16:55:04;;;;;;;21.55;10.18;;;;;;;;;;4963140;28;20050;-68
2022/01/22 16:57:33;;;;;;;17.63;8.30;;;;;;;;;;4969257;28;20056;-70
2022/01/22 17:00:05;;;;;;;16.67;7.57;;;;;;;;;;4965331;28;20166;-71
2022/01/22 17:02:37;;;;;;;16.23;8.40;;;;;;;;;;4967502;28;21545;-70
2022/01/22 17:05:10;;;;;;;19.30;9.93;;;;;;;;;;4947836;28;20178;-70
2022/01/22 17:07:45;;;;;;;17.83;9.25;;;;;;;;;;4951793;28;20075;-70
2022/01/22 17:10:18;;;;;;;15.93;9.05;;;;;;;;;;4949642;28;20062;-70